sensor_id;sensor_type;location;lat;lon;timestamp;temperature;humidity
37974;DHT22;23796;51.458;7.000;2023-04-30T00:02:03;9.30;85.90
37974;DHT22;23796;51.458;7.000;2023-04-30T00:04:31;9.20;86.10
37974;DHT22;23796;51.458;7.000;2023-04-30T00:06:59;9.20;86.30
37974;DHT22;23796;51.458;7.000;2023-04-30T00:09:25;9.20;86.50
37974;DHT22;23796;51.458;7.000;2023-04-30T00:11:51;9.20;86.60
37974;DHT22;23796;51.458;7.000;2023-04-30T00:14:16;9.10;86.80
37974;DHT22;23796;51.458;7.000;2023-04-30T00:16:42;9.10;87.00
37974;DHT22;23796;51.458;7.000;2023-04-30T00:19:15;9.10;87.00
37974;DHT22;23796;51.458;7.000;2023-04-30T00:21:43;9.10;87.10
37974;DHT22;23796;51.458;7.000;2023-04-30T00:24:08;9.10;87.30
37974;DHT22;23796;51.458;7.000;2023-04-30T00:26:34;9.10;87.30
37974;DHT22;23796;51.458;7.000;2023-04-30T00:28:59;9.10;87.40
37974;DHT22;23796;51.458;7.000;2023-04-30T00:31:25;9.10;87.50
37974;DHT22;23796;51.458;7.000;2023-04-30T00:33:51;9.00;87.60
37974;DHT22;23796;51.458;7.000;2023-04-30T00:36:18;9.00;87.80
37974;DHT22;23796;51.458;7.000;2023-04-30T00:38:44;9.00;87.90
37974;DHT22;23796;51.458;7.000;2023-04-30T00:41:10;8.90;88.10
37974;DHT22;23796;51.458;7.000;2023-04-30T00:43:38;8.90;88.30
37974;DHT22;23796;51.458;7.000;2023-04-30T00:46:03;8.90;88.30
37974;DHT22;23796;51.458;7.000;2023-04-30T00:48:30;8.90;88.20
37974;DHT22;23796;51.458;7.000;2023-04-30T00:50:56;8.90;88.20
37974;DHT22;23796;51.458;7.000;2023-04-30T00:53:22;8.80;88.50
37974;DHT22;23796;51.458;7.000;2023-04-30T00:55:47;8.80;88.60
37974;DHT22;23796;51.458;7.000;2023-04-30T00:58:14;8.80;88.80
37974;DHT22;23796;51.458;7.000;2023-04-30T01:00:40;8.80;88.80
37974;DHT22;23796;51.458;7.000;2023-04-30T01:03:14;8.80;88.80
37974;DHT22;23796;51.458;7.000;2023-04-30T01:05:40;8.70;88.70
37974;DHT22;23796;51.458;7.000;2023-04-30T01:08:10;8.70;88.70
37974;DHT22;23796;51.458;7.000;2023-04-30T01:10:51;8.70;88.80
37974;DHT22;23796;51.458;7.000;2023-04-30T01:18:34;8.60;89.10
37974;DHT22;23796;51.458;7.000;2023-04-30T01:21:06;8.60;89.40
37974;DHT22;23796;51.458;7.000;2023-04-30T01:24:01;8.60;89.50
37974;DHT22;23796;51.458;7.000;2023-04-30T01:29:33;8.50;89.60
37974;DHT22;23796;51.458;7.000;2023-04-30T01:32:01;8.50;89.80
37974;DHT22;23796;51.458;7.000;2023-04-30T01:34:28;8.50;89.80
37974;DHT22;23796;51.458;7.000;2023-04-30T01:40:06;8.50;89.80
37974;DHT22;23796;51.458;7.000;2023-04-30T01:42:42;8.50;89.90
37974;DHT22;23796;51.458;7.000;2023-04-30T01:50:48;8.40;89.90
37974;DHT22;23796;51.458;7.000;2023-04-30T01:53:27;8.40;90.20
37974;DHT22;23796;51.458;7.000;2023-04-30T01:56:02;8.40;90.10
37974;DHT22;23796;51.458;7.000;2023-04-30T01:58:29;8.30;90.20
37974;DHT22;23796;51.458;7.000;2023-04-30T02:00:55;8.30;90.40
37974;DHT22;23796;51.458;7.000;2023-04-30T02:03:20;8.30;90.40
37974;DHT22;23796;51.458;7.000;2023-04-30T02:05:51;8.30;90.50
37974;DHT22;23796;51.458;7.000;2023-04-30T02:08:17;8.30;90.60
37974;DHT22;23796;51.458;7.000;2023-04-30T02:10:42;8.30;90.60
37974;DHT22;23796;51.458;7.000;2023-04-30T02:13:08;8.20;90.60
37974;DHT22;23796;51.458;7.000;2023-04-30T02:15:36;8.20;90.60
37974;DHT22;23796;51.458;7.000;2023-04-30T02:18:01;8.20;90.70
37974;DHT22;23796;51.458;7.000;2023-04-30T02:20:27;8.20;90.80
37974;DHT22;23796;51.458;7.000;2023-04-30T02:22:53;8.20;90.80
37974;DHT22;23796;51.458;7.000;2023-04-30T02:25:18;8.10;91.00
37974;DHT22;23796;51.458;7.000;2023-04-30T02:27:44;8.00;91.30
37974;DHT22;23796;51.458;7.000;2023-04-30T02:30:09;8.00;91.30
37974;DHT22;23796;51.458;7.000;2023-04-30T02:32:37;8.00;91.50
37974;DHT22;23796;51.458;7.000;2023-04-30T02:35:03;8.00;91.50
37974;DHT22;23796;51.458;7.000;2023-04-30T02:37:29;8.00;91.50
37974;DHT22;23796;51.458;7.000;2023-04-30T02:39:54;8.00;91.50
37974;DHT22;23796;51.458;7.000;2023-04-30T02:42:20;8.00;91.70
37974;DHT22;23796;51.458;7.000;2023-04-30T02:44:48;7.90;91.70
37974;DHT22;23796;51.458;7.000;2023-04-30T02:47:13;7.90;91.70
37974;DHT22;23796;51.458;7.000;2023-04-30T02:49:41;7.90;91.90
37974;DHT22;23796;51.458;7.000;2023-04-30T02:52:07;7.80;92.00
37974;DHT22;23796;51.458;7.000;2023-04-30T02:54:34;7.80;92.10
37974;DHT22;23796;51.458;7.000;2023-04-30T02:57:00;7.80;92.20
37974;DHT22;23796;51.458;7.000;2023-04-30T02:59:25;7.70;92.30
37974;DHT22;23796;51.458;7.000;2023-04-30T03:01:51;7.70;92.40
37974;DHT22;23796;51.458;7.000;2023-04-30T03:04:17;7.70;92.40
37974;DHT22;23796;51.458;7.000;2023-04-30T03:06:42;7.70;92.40
37974;DHT22;23796;51.458;7.000;2023-04-30T03:09:08;7.70;92.50
37974;DHT22;23796;51.458;7.000;2023-04-30T03:11:34;7.70;92.60
37974;DHT22;23796;51.458;7.000;2023-04-30T03:14:02;7.70;92.70
37974;DHT22;23796;51.458;7.000;2023-04-30T03:16:28;7.60;92.70
37974;DHT22;23796;51.458;7.000;2023-04-30T03:18:57;7.60;92.70
37974;DHT22;23796;51.458;7.000;2023-04-30T03:21:23;7.60;92.90
37974;DHT22;23796;51.458;7.000;2023-04-30T03:23:49;7.60;92.90
37974;DHT22;23796;51.458;7.000;2023-04-30T03:26:17;7.60;93.00
37974;DHT22;23796;51.458;7.000;2023-04-30T03:28:45;7.60;93.10
37974;DHT22;23796;51.458;7.000;2023-04-30T03:31:10;7.60;93.10
37974;DHT22;23796;51.458;7.000;2023-04-30T03:33:38;7.60;93.00
37974;DHT22;23796;51.458;7.000;2023-04-30T03:36:04;7.60;93.10
37974;DHT22;23796;51.458;7.000;2023-04-30T03:38:30;7.50;93.20
37974;DHT22;23796;51.458;7.000;2023-04-30T03:40:56;7.50;93.30
37974;DHT22;23796;51.458;7.000;2023-04-30T03:43:21;7.50;93.20
37974;DHT22;23796;51.458;7.000;2023-04-30T03:45:47;7.50;93.30
37974;DHT22;23796;51.458;7.000;2023-04-30T03:48:13;7.50;93.20
37974;DHT22;23796;51.458;7.000;2023-04-30T03:50:38;7.50;93.30
37974;DHT22;23796;51.458;7.000;2023-04-30T03:53:04;7.50;93.20
37974;DHT22;23796;51.458;7.000;2023-04-30T03:55:31;7.50;93.30
37974;DHT22;23796;51.458;7.000;2023-04-30T03:57:59;7.40;93.30
37974;DHT22;23796;51.458;7.000;2023-04-30T04:00:26;7.40;93.40
37974;DHT22;23796;51.458;7.000;2023-04-30T04:02:52;7.40;93.40
37974;DHT22;23796;51.458;7.000;2023-04-30T04:05:18;7.30;93.50
37974;DHT22;23796;51.458;7.000;2023-04-30T04:07:50;7.30;93.40
37974;DHT22;23796;51.458;7.000;2023-04-30T04:10:16;7.30;93.50
37974;DHT22;23796;51.458;7.000;2023-04-30T04:12:42;7.30;93.50
37974;DHT22;23796;51.458;7.000;2023-04-30T04:15:08;7.30;93.60
37974;DHT22;23796;51.458;7.000;2023-04-30T04:17:34;7.20;93.60
37974;DHT22;23796;51.458;7.000;2023-04-30T04:19:59;7.20;93.80
37974;DHT22;23796;51.458;7.000;2023-04-30T04:22:30;7.20;93.80
37974;DHT22;23796;51.458;7.000;2023-04-30T04:25:00;7.20;93.80
37974;DHT22;23796;51.458;7.000;2023-04-30T04:27:31;7.20;94.00
37974;DHT22;23796;51.458;7.000;2023-04-30T04:29:59;7.20;94.00
37974;DHT22;23796;51.458;7.000;2023-04-30T04:32:24;7.10;94.20
37974;DHT22;23796;51.458;7.000;2023-04-30T04:34:53;7.10;94.30
37974;DHT22;23796;51.458;7.000;2023-04-30T04:37:19;7.10;94.20
37974;DHT22;23796;51.458;7.000;2023-04-30T04:39:45;7.10;94.20
37974;DHT22;23796;51.458;7.000;2023-04-30T04:42:13;7.20;94.20
37974;DHT22;23796;51.458;7.000;2023-04-30T04:44:39;7.20;94.10
37974;DHT22;23796;51.458;7.000;2023-04-30T04:47:05;7.20;93.90
37974;DHT22;23796;51.458;7.000;2023-04-30T04:49:31;7.20;93.90
37974;DHT22;23796;51.458;7.000;2023-04-30T04:51:56;7.30;93.60
37974;DHT22;23796;51.458;7.000;2023-04-30T04:54:22;7.30;93.60
37974;DHT22;23796;51.458;7.000;2023-04-30T04:56:48;7.30;93.50
37974;DHT22;23796;51.458;7.000;2023-04-30T04:59:14;7.30;93.40
37974;DHT22;23796;51.458;7.000;2023-04-30T05:01:42;7.30;93.40
37974;DHT22;23796;51.458;7.000;2023-04-30T05:04:09;7.30;93.30
37974;DHT22;23796;51.458;7.000;2023-04-30T05:06:38;7.30;93.30
37974;DHT22;23796;51.458;7.000;2023-04-30T05:09:03;7.30;93.20
37974;DHT22;23796;51.458;7.000;2023-04-30T05:11:33;7.30;93.20
37974;DHT22;23796;51.458;7.000;2023-04-30T05:13:59;7.40;93.10
37974;DHT22;23796;51.458;7.000;2023-04-30T05:16:26;7.40;93.20
37974;DHT22;23796;51.458;7.000;2023-04-30T05:18:52;7.40;93.20
37974;DHT22;23796;51.458;7.000;2023-04-30T05:21:18;7.40;93.10
37974;DHT22;23796;51.458;7.000;2023-04-30T05:23:46;7.50;93.10
37974;DHT22;23796;51.458;7.000;2023-04-30T05:26:14;7.50;92.90
37974;DHT22;23796;51.458;7.000;2023-04-30T05:28:40;7.60;92.70
37974;DHT22;23796;51.458;7.000;2023-04-30T05:31:05;7.60;92.60
37974;DHT22;23796;51.458;7.000;2023-04-30T05:33:31;7.60;92.70
37974;DHT22;23796;51.458;7.000;2023-04-30T05:35:56;7.70;92.50
37974;DHT22;23796;51.458;7.000;2023-04-30T05:38:24;7.70;92.40
37974;DHT22;23796;51.458;7.000;2023-04-30T05:40:52;7.80;92.20
37974;DHT22;23796;51.458;7.000;2023-04-30T05:43:20;7.80;92.10
37974;DHT22;23796;51.458;7.000;2023-04-30T05:45:46;7.90;92.00
37974;DHT22;23796;51.458;7.000;2023-04-30T05:48:11;7.90;91.70
37974;DHT22;23796;51.458;7.000;2023-04-30T05:50:37;7.90;91.60
37974;DHT22;23796;51.458;7.000;2023-04-30T05:53:02;8.00;91.50
37974;DHT22;23796;51.458;7.000;2023-04-30T05:55:30;8.10;91.40
37974;DHT22;23796;51.458;7.000;2023-04-30T05:57:56;8.10;91.20
37974;DHT22;23796;51.458;7.000;2023-04-30T06:00:21;8.10;91.10
37974;DHT22;23796;51.458;7.000;2023-04-30T06:02:52;8.20;90.90
37974;DHT22;23796;51.458;7.000;2023-04-30T06:05:18;8.20;90.90
37974;DHT22;23796;51.458;7.000;2023-04-30T06:07:46;8.30;90.60
37974;DHT22;23796;51.458;7.000;2023-04-30T06:10:11;8.40;90.40
37974;DHT22;23796;51.458;7.000;2023-04-30T06:12:37;8.40;90.10
37974;DHT22;23796;51.458;7.000;2023-04-30T06:15:04;8.50;90.10
37974;DHT22;23796;51.458;7.000;2023-04-30T06:17:30;8.50;90.00
37974;DHT22;23796;51.458;7.000;2023-04-30T06:19:58;8.60;89.90
37974;DHT22;23796;51.458;7.000;2023-04-30T06:22:27;8.70;89.80
37974;DHT22;23796;51.458;7.000;2023-04-30T06:24:53;8.70;89.50
37974;DHT22;23796;51.458;7.000;2023-04-30T06:27:21;8.80;89.30
37974;DHT22;23796;51.458;7.000;2023-04-30T06:29:47;8.90;89.20
37974;DHT22;23796;51.458;7.000;2023-04-30T06:32:13;8.90;88.90
37974;DHT22;23796;51.458;7.000;2023-04-30T06:34:38;9.00;88.90
37974;DHT22;23796;51.458;7.000;2023-04-30T06:37:04;9.00;88.80
37974;DHT22;23796;51.458;7.000;2023-04-30T06:39:30;9.10;88.50
37974;DHT22;23796;51.458;7.000;2023-04-30T06:42:00;9.20;88.10
37974;DHT22;23796;51.458;7.000;2023-04-30T06:44:26;9.30;87.80
37974;DHT22;23796;51.458;7.000;2023-04-30T06:46:56;9.30;87.80
37974;DHT22;23796;51.458;7.000;2023-04-30T06:49:24;9.40;87.50
37974;DHT22;23796;51.458;7.000;2023-04-30T06:51:50;9.50;87.10
37974;DHT22;23796;51.458;7.000;2023-04-30T06:54:15;9.60;86.70
37974;DHT22;23796;51.458;7.000;2023-04-30T06:56:43;9.70;86.20
37974;DHT22;23796;51.458;7.000;2023-04-30T06:59:11;9.70;85.90
37974;DHT22;23796;51.458;7.000;2023-04-30T07:01:37;9.80;85.80
37974;DHT22;23796;51.458;7.000;2023-04-30T07:04:03;9.80;85.70
37974;DHT22;23796;51.458;7.000;2023-04-30T07:06:28;9.90;85.60
37974;DHT22;23796;51.458;7.000;2023-04-30T07:08:54;10.00;85.20
37974;DHT22;23796;51.458;7.000;2023-04-30T07:11:21;10.00;84.90
37974;DHT22;23796;51.458;7.000;2023-04-30T07:13:52;10.10;84.60
37974;DHT22;23796;51.458;7.000;2023-04-30T07:16:21;10.20;84.60
37974;DHT22;23796;51.458;7.000;2023-04-30T07:18:47;10.30;84.70
37974;DHT22;23796;51.458;7.000;2023-04-30T07:21:15;10.30;83.90
37974;DHT22;23796;51.458;7.000;2023-04-30T07:23:43;10.40;83.70
37974;DHT22;23796;51.458;7.000;2023-04-30T07:26:11;10.50;83.50
37974;DHT22;23796;51.458;7.000;2023-04-30T07:28:42;10.60;83.50
37974;DHT22;23796;51.458;7.000;2023-04-30T07:31:10;10.70;83.60
37974;DHT22;23796;51.458;7.000;2023-04-30T07:33:35;10.70;83.10
37974;DHT22;23796;51.458;7.000;2023-04-30T07:36:03;10.70;82.50
37974;DHT22;23796;51.458;7.000;2023-04-30T07:38:39;10.70;82.60
37974;DHT22;23796;51.458;7.000;2023-04-30T07:41:07;10.80;82.60
37974;DHT22;23796;51.458;7.000;2023-04-30T07:43:34;10.90;82.20
37974;DHT22;23796;51.458;7.000;2023-04-30T07:46:02;11.00;81.70
37974;DHT22;23796;51.458;7.000;2023-04-30T07:48:30;11.00;81.40
37974;DHT22;23796;51.458;7.000;2023-04-30T07:50:58;11.10;81.30
37974;DHT22;23796;51.458;7.000;2023-04-30T07:53:26;11.20;81.00
37974;DHT22;23796;51.458;7.000;2023-04-30T07:55:54;11.30;80.60
37974;DHT22;23796;51.458;7.000;2023-04-30T07:58:20;11.40;80.60
37974;DHT22;23796;51.458;7.000;2023-04-30T08:00:45;11.50;80.60
37974;DHT22;23796;51.458;7.000;2023-04-30T08:03:11;11.50;80.10
37974;DHT22;23796;51.458;7.000;2023-04-30T08:05:37;11.60;80.00
37974;DHT22;23796;51.458;7.000;2023-04-30T08:08:05;11.70;80.00
37974;DHT22;23796;51.458;7.000;2023-04-30T08:10:35;11.70;79.40
37974;DHT22;23796;51.458;7.000;2023-04-30T08:13:03;11.60;79.50
37974;DHT22;23796;51.458;7.000;2023-04-30T08:15:32;11.70;79.60
37974;DHT22;23796;51.458;7.000;2023-04-30T08:18:01;11.80;79.20
37974;DHT22;23796;51.458;7.000;2023-04-30T08:20:26;12.00;78.80
37974;DHT22;23796;51.458;7.000;2023-04-30T08:22:55;12.10;78.10
37974;DHT22;23796;51.458;7.000;2023-04-30T08:25:21;12.20;77.70
37974;DHT22;23796;51.458;7.000;2023-04-30T08:27:46;12.20;77.60
37974;DHT22;23796;51.458;7.000;2023-04-30T08:30:12;12.30;77.60
37974;DHT22;23796;51.458;7.000;2023-04-30T08:32:40;12.40;77.00
37974;DHT22;23796;51.458;7.000;2023-04-30T08:35:06;12.30;76.70
37974;DHT22;23796;51.458;7.000;2023-04-30T08:37:36;12.20;77.50
37974;DHT22;23796;51.458;7.000;2023-04-30T08:40:05;12.40;77.90
37974;DHT22;23796;51.458;7.000;2023-04-30T08:42:39;12.50;77.40
37974;DHT22;23796;51.458;7.000;2023-04-30T08:45:08;12.60;75.50
37974;DHT22;23796;51.458;7.000;2023-04-30T08:47:36;12.40;76.10
37974;DHT22;23796;51.458;7.000;2023-04-30T08:50:03;12.50;76.00
37974;DHT22;23796;51.458;7.000;2023-04-30T08:52:33;12.60;75.90
37974;DHT22;23796;51.458;7.000;2023-04-30T08:55:00;12.70;75.40
37974;DHT22;23796;51.458;7.000;2023-04-30T08:57:28;12.80;75.00
37974;DHT22;23796;51.458;7.000;2023-04-30T08:59:54;13.00;74.30
37974;DHT22;23796;51.458;7.000;2023-04-30T09:02:20;13.10;74.10
37974;DHT22;23796;51.458;7.000;2023-04-30T09:04:47;13.00;73.90
37974;DHT22;23796;51.458;7.000;2023-04-30T09:07:12;13.10;73.80
37974;DHT22;23796;51.458;7.000;2023-04-30T09:09:41;13.20;73.40
37974;DHT22;23796;51.458;7.000;2023-04-30T09:14:40;13.40;73.00
37974;DHT22;23796;51.458;7.000;2023-04-30T09:17:06;13.50;72.90
37974;DHT22;23796;51.458;7.000;2023-04-30T09:19:34;13.60;72.50
37974;DHT22;23796;51.458;7.000;2023-04-30T09:22:21;13.70;72.60
37974;DHT22;23796;51.458;7.000;2023-04-30T09:24:47;13.80;72.10
37974;DHT22;23796;51.458;7.000;2023-04-30T09:27:21;13.90;71.60
37974;DHT22;23796;51.458;7.000;2023-04-30T09:29:49;13.90;70.90
37974;DHT22;23796;51.458;7.000;2023-04-30T09:32:17;14.00;70.80
37974;DHT22;23796;51.458;7.000;2023-04-30T09:34:46;14.00;71.10
37974;DHT22;23796;51.458;7.000;2023-04-30T09:37:11;14.10;70.90
37974;DHT22;23796;51.458;7.000;2023-04-30T09:39:53;14.20;70.20
37974;DHT22;23796;51.458;7.000;2023-04-30T09:42:19;14.30;69.70
37974;DHT22;23796;51.458;7.000;2023-04-30T09:44:48;14.30;70.30
37974;DHT22;23796;51.458;7.000;2023-04-30T09:47:15;14.40;70.30
37974;DHT22;23796;51.458;7.000;2023-04-30T09:49:42;14.50;70.10
37974;DHT22;23796;51.458;7.000;2023-04-30T09:52:08;14.50;68.80
37974;DHT22;23796;51.458;7.000;2023-04-30T09:54:37;14.60;68.70
37974;DHT22;23796;51.458;7.000;2023-04-30T09:57:03;14.70;68.00
37974;DHT22;23796;51.458;7.000;2023-04-30T10:01:58;14.70;68.80
37974;DHT22;23796;51.458;7.000;2023-04-30T10:04:29;14.80;68.20
37974;DHT22;23796;51.458;7.000;2023-04-30T10:06:57;14.90;67.80
37974;DHT22;23796;51.458;7.000;2023-04-30T10:09:38;15.00;67.20
37974;DHT22;23796;51.458;7.000;2023-04-30T10:12:10;15.00;67.10
37974;DHT22;23796;51.458;7.000;2023-04-30T10:14:38;15.10;66.60
37974;DHT22;23796;51.458;7.000;2023-04-30T10:17:13;15.00;65.90
37974;DHT22;23796;51.458;7.000;2023-04-30T10:19:44;14.90;67.10
37974;DHT22;23796;51.458;7.000;2023-04-30T10:22:11;15.00;66.50
37974;DHT22;23796;51.458;7.000;2023-04-30T10:24:39;15.10;65.70
37974;DHT22;23796;51.458;7.000;2023-04-30T10:27:06;15.10;65.10
37974;DHT22;23796;51.458;7.000;2023-04-30T10:29:34;15.20;64.90
37974;DHT22;23796;51.458;7.000;2023-04-30T10:31:59;15.30;64.00
37974;DHT22;23796;51.458;7.000;2023-04-30T10:37:35;15.50;63.90
37974;DHT22;23796;51.458;7.000;2023-04-30T10:40:02;15.60;63.60
37974;DHT22;23796;51.458;7.000;2023-04-30T10:42:29;15.60;63.90
37974;DHT22;23796;51.458;7.000;2023-04-30T10:44:55;15.60;63.70
37974;DHT22;23796;51.458;7.000;2023-04-30T10:47:29;15.70;63.90
37974;DHT22;23796;51.458;7.000;2023-04-30T10:50:04;15.50;62.20
37974;DHT22;23796;51.458;7.000;2023-04-30T10:52:32;15.50;63.60
37974;DHT22;23796;51.458;7.000;2023-04-30T10:55:00;15.60;63.60
37974;DHT22;23796;51.458;7.000;2023-04-30T10:57:30;15.70;63.40
37974;DHT22;23796;51.458;7.000;2023-04-30T11:02:46;15.90;63.00
37974;DHT22;23796;51.458;7.000;2023-04-30T11:05:17;16.00;62.80
37974;DHT22;23796;51.458;7.000;2023-04-30T11:10:15;16.10;62.80
37974;DHT22;23796;51.458;7.000;2023-04-30T11:12:49;16.20;62.30
37974;DHT22;23796;51.458;7.000;2023-04-30T11:15:17;16.30;60.80
37974;DHT22;23796;51.458;7.000;2023-04-30T11:17:50;16.30;60.10
37974;DHT22;23796;51.458;7.000;2023-04-30T11:20:21;16.30;60.10
37974;DHT22;23796;51.458;7.000;2023-04-30T11:22:47;16.30;61.00
37974;DHT22;23796;51.458;7.000;2023-04-30T11:25:17;16.40;60.70
37974;DHT22;23796;51.458;7.000;2023-04-30T11:27:44;16.50;60.60
37974;DHT22;23796;51.458;7.000;2023-04-30T11:30:15;16.60;60.80
37974;DHT22;23796;51.458;7.000;2023-04-30T11:32:45;16.60;60.20
37974;DHT22;23796;51.458;7.000;2023-04-30T11:35:13;16.70;59.60
37974;DHT22;23796;51.458;7.000;2023-04-30T11:37:42;16.80;60.00
37974;DHT22;23796;51.458;7.000;2023-04-30T11:40:14;16.90;59.40
37974;DHT22;23796;51.458;7.000;2023-04-30T11:42:41;16.90;59.10
37974;DHT22;23796;51.458;7.000;2023-04-30T11:45:17;16.70;58.90
37974;DHT22;23796;51.458;7.000;2023-04-30T11:47:50;16.70;58.40
37974;DHT22;23796;51.458;7.000;2023-04-30T11:50:20;16.70;59.00
37974;DHT22;23796;51.458;7.000;2023-04-30T11:52:55;16.80;58.90
37974;DHT22;23796;51.458;7.000;2023-04-30T11:55:25;16.90;58.90
37974;DHT22;23796;51.458;7.000;2023-04-30T11:57:55;16.90;58.80
37974;DHT22;23796;51.458;7.000;2023-04-30T12:00:28;17.00;59.00
37974;DHT22;23796;51.458;7.000;2023-04-30T12:03:00;17.00;59.00
37974;DHT22;23796;51.458;7.000;2023-04-30T12:05:27;17.00;58.70
37974;DHT22;23796;51.458;7.000;2023-04-30T12:10:30;17.20;57.60
37974;DHT22;23796;51.458;7.000;2023-04-30T12:12:56;17.20;57.40
37974;DHT22;23796;51.458;7.000;2023-04-30T12:15:25;17.10;57.80
37974;DHT22;23796;51.458;7.000;2023-04-30T12:17:52;17.10;57.00
37974;DHT22;23796;51.458;7.000;2023-04-30T12:20:21;17.00;56.80
37974;DHT22;23796;51.458;7.000;2023-04-30T12:22:48;17.10;57.30
37974;DHT22;23796;51.458;7.000;2023-04-30T12:25:17;17.20;57.60
37974;DHT22;23796;51.458;7.000;2023-04-30T12:27:48;17.20;56.50
37974;DHT22;23796;51.458;7.000;2023-04-30T12:30:22;16.80;57.70
37974;DHT22;23796;51.458;7.000;2023-04-30T12:32:50;16.90;57.90
37974;DHT22;23796;51.458;7.000;2023-04-30T12:35:18;17.10;57.30
37974;DHT22;23796;51.458;7.000;2023-04-30T12:38:06;17.30;57.20
37974;DHT22;23796;51.458;7.000;2023-04-30T12:40:34;17.40;56.80
37974;DHT22;23796;51.458;7.000;2023-04-30T12:43:05;17.60;56.40
37974;DHT22;23796;51.458;7.000;2023-04-30T12:45:53;17.80;55.50
37974;DHT22;23796;51.458;7.000;2023-04-30T12:48:21;18.00;55.60
37974;DHT22;23796;51.458;7.000;2023-04-30T12:53:21;18.10;55.30
37974;DHT22;23796;51.458;7.000;2023-04-30T12:56:13;18.20;55.20
37974;DHT22;23796;51.458;7.000;2023-04-30T12:58:42;18.30;54.80
37974;DHT22;23796;51.458;7.000;2023-04-30T13:01:13;18.40;54.70
37974;DHT22;23796;51.458;7.000;2023-04-30T13:03:39;18.40;55.10
37974;DHT22;23796;51.458;7.000;2023-04-30T13:06:05;18.60;54.60
37974;DHT22;23796;51.458;7.000;2023-04-30T13:08:31;18.80;54.10
37974;DHT22;23796;51.458;7.000;2023-04-30T13:10:59;19.10;53.30
37974;DHT22;23796;51.458;7.000;2023-04-30T13:13:25;19.10;53.40
37974;DHT22;23796;51.458;7.000;2023-04-30T13:15:53;19.10;52.90
37974;DHT22;23796;51.458;7.000;2023-04-30T13:18:19;19.00;52.90
37974;DHT22;23796;51.458;7.000;2023-04-30T13:20:46;18.70;53.10
37974;DHT22;23796;51.458;7.000;2023-04-30T13:23:12;18.70;53.70
37974;DHT22;23796;51.458;7.000;2023-04-30T13:25:40;18.90;53.50
37974;DHT22;23796;51.458;7.000;2023-04-30T13:28:08;19.10;53.00
37974;DHT22;23796;51.458;7.000;2023-04-30T13:30:34;19.20;53.00
37974;DHT22;23796;51.458;7.000;2023-04-30T13:33:00;19.20;52.50
37974;DHT22;23796;51.458;7.000;2023-04-30T13:35:28;19.10;52.70
37974;DHT22;23796;51.458;7.000;2023-04-30T13:37:54;19.20;52.60
37974;DHT22;23796;51.458;7.000;2023-04-30T13:40:22;19.40;52.00
37974;DHT22;23796;51.458;7.000;2023-04-30T13:42:48;19.40;51.60
37974;DHT22;23796;51.458;7.000;2023-04-30T13:45:15;19.30;52.60
37974;DHT22;23796;51.458;7.000;2023-04-30T13:47:41;19.30;52.50
37974;DHT22;23796;51.458;7.000;2023-04-30T13:50:07;19.50;52.30
37974;DHT22;23796;51.458;7.000;2023-04-30T13:52:34;19.60;51.90
37974;DHT22;23796;51.458;7.000;2023-04-30T13:55:01;19.50;51.20
37974;DHT22;23796;51.458;7.000;2023-04-30T13:57:29;19.40;51.20
37974;DHT22;23796;51.458;7.000;2023-04-30T13:59:59;19.10;52.00
37974;DHT22;23796;51.458;7.000;2023-04-30T14:02:27;19.10;52.50
37974;DHT22;23796;51.458;7.000;2023-04-30T14:04:53;19.50;52.10
37974;DHT22;23796;51.458;7.000;2023-04-30T14:07:22;19.70;52.00
37974;DHT22;23796;51.458;7.000;2023-04-30T14:09:48;19.90;50.30
37974;DHT22;23796;51.458;7.000;2023-04-30T14:12:14;19.80;50.20
37974;DHT22;23796;51.458;7.000;2023-04-30T14:14:42;19.60;50.20
37974;DHT22;23796;51.458;7.000;2023-04-30T14:17:08;19.30;51.10
37974;DHT22;23796;51.458;7.000;2023-04-30T14:19:36;18.80;51.90
37974;DHT22;23796;51.458;7.000;2023-04-30T14:22:02;18.60;53.30
37974;DHT22;23796;51.458;7.000;2023-04-30T14:24:27;19.00;53.00
37974;DHT22;23796;51.458;7.000;2023-04-30T14:26:53;19.30;51.90
37974;DHT22;23796;51.458;7.000;2023-04-30T14:29:21;19.50;50.70
37974;DHT22;23796;51.458;7.000;2023-04-30T14:31:48;19.60;50.50
37974;DHT22;23796;51.458;7.000;2023-04-30T14:34:14;19.60;51.60
37974;DHT22;23796;51.458;7.000;2023-04-30T14:36:40;19.50;52.20
37974;DHT22;23796;51.458;7.000;2023-04-30T14:39:05;19.50;52.40
37974;DHT22;23796;51.458;7.000;2023-04-30T14:41:35;19.40;52.20
37974;DHT22;23796;51.458;7.000;2023-04-30T14:44:01;19.30;51.90
37974;DHT22;23796;51.458;7.000;2023-04-30T14:46:30;19.20;52.00
37974;DHT22;23796;51.458;7.000;2023-04-30T14:49:00;19.10;52.60
37974;DHT22;23796;51.458;7.000;2023-04-30T14:51:30;19.10;52.50
37974;DHT22;23796;51.458;7.000;2023-04-30T14:53:56;18.60;52.80
37974;DHT22;23796;51.458;7.000;2023-04-30T14:56:23;18.50;53.70
37974;DHT22;23796;51.458;7.000;2023-04-30T14:58:49;18.60;53.40
37974;DHT22;23796;51.458;7.000;2023-04-30T15:01:17;18.50;52.70
37974;DHT22;23796;51.458;7.000;2023-04-30T15:03:43;18.50;52.80
37974;DHT22;23796;51.458;7.000;2023-04-30T15:06:11;18.50;52.90
37974;DHT22;23796;51.458;7.000;2023-04-30T15:08:39;18.60;52.50
37974;DHT22;23796;51.458;7.000;2023-04-30T15:11:05;18.60;52.50
37974;DHT22;23796;51.458;7.000;2023-04-30T15:13:37;18.60;52.00
37974;DHT22;23796;51.458;7.000;2023-04-30T15:16:04;18.60;52.00
37974;DHT22;23796;51.458;7.000;2023-04-30T15:18:30;18.70;52.20
37974;DHT22;23796;51.458;7.000;2023-04-30T15:20:58;18.80;52.30
37974;DHT22;23796;51.458;7.000;2023-04-30T15:23:23;18.80;51.40
37974;DHT22;23796;51.458;7.000;2023-04-30T15:25:49;18.70;52.20
37974;DHT22;23796;51.458;7.000;2023-04-30T15:28:15;18.80;51.60
37974;DHT22;23796;51.458;7.000;2023-04-30T15:30:41;18.80;51.40
37974;DHT22;23796;51.458;7.000;2023-04-30T15:33:11;18.80;51.20
37974;DHT22;23796;51.458;7.000;2023-04-30T15:35:37;18.90;50.70
37974;DHT22;23796;51.458;7.000;2023-04-30T15:38:02;18.90;50.70
37974;DHT22;23796;51.458;7.000;2023-04-30T15:40:30;18.90;51.20
37974;DHT22;23796;51.458;7.000;2023-04-30T15:42:56;19.00;51.40
37974;DHT22;23796;51.458;7.000;2023-04-30T15:45:24;18.90;52.00
37974;DHT22;23796;51.458;7.000;2023-04-30T15:47:51;18.60;52.60
37974;DHT22;23796;51.458;7.000;2023-04-30T15:50:19;18.70;53.00
37974;DHT22;23796;51.458;7.000;2023-04-30T15:52:45;18.80;53.10
37974;DHT22;23796;51.458;7.000;2023-04-30T15:55:11;18.70;53.40
37974;DHT22;23796;51.458;7.000;2023-04-30T15:57:37;18.80;53.50
37974;DHT22;23796;51.458;7.000;2023-04-30T16:00:03;19.10;51.90
37974;DHT22;23796;51.458;7.000;2023-04-30T16:02:32;18.90;51.80
37974;DHT22;23796;51.458;7.000;2023-04-30T16:04:57;18.80;51.90
37974;DHT22;23796;51.458;7.000;2023-04-30T16:07:25;18.80;52.70
37974;DHT22;23796;51.458;7.000;2023-04-30T16:09:52;18.90;52.70
37974;DHT22;23796;51.458;7.000;2023-04-30T16:12:17;19.10;52.40
37974;DHT22;23796;51.458;7.000;2023-04-30T16:14:45;19.30;52.10
37974;DHT22;23796;51.458;7.000;2023-04-30T16:17:11;19.40;51.20